LFRO/LAI METAR and TAF weather

Enter ICAO airport designator
Station Type Date Time Source
LFRO METAR 2020/01/20 13:00 UTC NOAA

LFRO 201300Z AUTO 06008KT 030V100 9999 FEW022 09/04 Q1047


Station Type Date Time Source
LFRO Decoded METAR 2020/01/20 13:00 UTC NOAA

Lannion / Servel, France (LFRO) 48-45N 003-28W
Jan 20, 2020 - 08:00 AM EST / 2020.01.20 1300 UTC
Wind: from the ENE (060 degrees) at 9 MPH (8 KT) (direction variable):0
Visibility: greater than 7 mile(s):0
Sky conditions: mostly clear
Temperature: 48 F (9 C)
Dew Point: 39 F (4 C)
Relative Humidity: 70%
Pressure (altimeter): 30.92 in. Hg (1047 hPa)
ob: LFRO 201300Z AUTO 06008KT 030V100 9999 FEW022 09/04 Q1047
cycle: 13

Station Type Date Time Source
LFRO TAF 2019/05/15 19:06 UTC NOAA

TAF LFRO 151936Z 1519/1612 CNL

Example: see airport list